sensor_id;sensor_type;location;lat;lon;timestamp;P1;durP1;ratioP1;P2;durP2;ratioP2
59828;SDS011;45708;51.848;107.620;2022-10-16T00:04:42;12.73;;;5.40;;
59828;SDS011;45708;51.848;107.620;2022-10-16T00:09:43;6.65;;;3.95;;
59828;SDS011;45708;51.848;107.620;2022-10-16T00:14:44;9.77;;;4.07;;
59828;SDS011;45708;51.848;107.620;2022-10-16T00:19:44;8.68;;;4.53;;
59828;SDS011;45708;51.848;107.620;2022-10-16T00:24:45;12.10;;;5.63;;
59828;SDS011;45708;51.848;107.620;2022-10-16T00:29:49;20.95;;;7.53;;
59828;SDS011;45708;51.848;107.620;2022-10-16T00:34:51;15.52;;;6.65;;
59828;SDS011;45708;51.848;107.620;2022-10-16T00:39:51;19.08;;;7.95;;
59828;SDS011;45708;51.848;107.620;2022-10-16T00:44:53;14.88;;;8.05;;
59828;SDS011;45708;51.848;107.620;2022-10-16T00:55:09;17.75;;;9.80;;
59828;SDS011;45708;51.848;107.620;2022-10-16T01:00:12;12.32;;;7.03;;
59828;SDS011;45708;51.848;107.620;2022-10-16T01:05:15;11.05;;;5.28;;
59828;SDS011;45708;51.848;107.620;2022-10-16T01:10:20;9.63;;;5.43;;
59828;SDS011;45708;51.848;107.620;2022-10-16T01:15:34;8.32;;;3.25;;
59828;SDS011;45708;51.848;107.620;2022-10-16T01:20:45;4.40;;;2.80;;
59828;SDS011;45708;51.848;107.620;2022-10-16T01:26:31;14.98;;;3.47;;
59828;SDS011;45708;51.848;107.620;2022-10-16T01:31:57;6.15;;;3.20;;
59828;SDS011;45708;51.848;107.620;2022-10-16T01:37:04;7.38;;;4.35;;
59828;SDS011;45708;51.848;107.620;2022-10-16T01:42:09;9.13;;;4.18;;
59828;SDS011;45708;51.848;107.620;2022-10-16T01:47:15;8.55;;;3.40;;
59828;SDS011;45708;51.848;107.620;2022-10-16T01:52:22;8.40;;;6.30;;
59828;SDS011;45708;51.848;107.620;2022-10-16T01:57:26;10.32;;;3.00;;
59828;SDS011;45708;51.848;107.620;2022-10-16T02:02:29;4.78;;;2.55;;
59828;SDS011;45708;51.848;107.620;2022-10-16T02:07:31;5.43;;;2.50;;
59828;SDS011;45708;51.848;107.620;2022-10-16T02:12:33;4.32;;;1.90;;
59828;SDS011;45708;51.848;107.620;2022-10-16T02:17:38;6.18;;;2.80;;
59828;SDS011;45708;51.848;107.620;2022-10-16T02:22:40;10.68;;;3.53;;
59828;SDS011;45708;51.848;107.620;2022-10-16T02:32:58;5.35;;;2.55;;
59828;SDS011;45708;51.848;107.620;2022-10-16T02:38:03;4.22;;;2.35;;
59828;SDS011;45708;51.848;107.620;2022-10-16T02:43:05;5.75;;;4.18;;
59828;SDS011;45708;51.848;107.620;2022-10-16T02:48:06;6.28;;;3.92;;
59828;SDS011;45708;51.848;107.620;2022-10-16T02:53:07;4.43;;;2.67;;
59828;SDS011;45708;51.848;107.620;2022-10-16T02:58:09;2.75;;;2.10;;
59828;SDS011;45708;51.848;107.620;2022-10-16T03:03:09;7.10;;;2.97;;
59828;SDS011;45708;51.848;107.620;2022-10-16T03:08:11;6.53;;;2.60;;
59828;SDS011;45708;51.848;107.620;2022-10-16T03:13:12;4.75;;;2.25;;
59828;SDS011;45708;51.848;107.620;2022-10-16T03:18:13;5.32;;;2.85;;
59828;SDS011;45708;51.848;107.620;2022-10-16T03:23:14;6.30;;;3.10;;
59828;SDS011;45708;51.848;107.620;2022-10-16T03:28:15;3.28;;;2.10;;
59828;SDS011;45708;51.848;107.620;2022-10-16T03:33:16;2.78;;;2.03;;
59828;SDS011;45708;51.848;107.620;2022-10-16T03:38:17;6.63;;;3.30;;
59828;SDS011;45708;51.848;107.620;2022-10-16T03:43:18;9.55;;;2.35;;
59828;SDS011;45708;51.848;107.620;2022-10-16T03:48:19;7.93;;;2.75;;
59828;SDS011;45708;51.848;107.620;2022-10-16T03:53:19;4.72;;;2.47;;
59828;SDS011;45708;51.848;107.620;2022-10-16T03:58:21;5.13;;;2.50;;
59828;SDS011;45708;51.848;107.620;2022-10-16T04:03:21;1.55;;;1.45;;
59828;SDS011;45708;51.848;107.620;2022-10-16T04:08:22;3.75;;;2.83;;
59828;SDS011;45708;51.848;107.620;2022-10-16T04:13:23;5.93;;;2.70;;
59828;SDS011;45708;51.848;107.620;2022-10-16T04:18:24;7.47;;;2.80;;
59828;SDS011;45708;51.848;107.620;2022-10-16T04:23:25;5.55;;;3.03;;
59828;SDS011;45708;51.848;107.620;2022-10-16T04:28:26;3.63;;;2.63;;
59828;SDS011;45708;51.848;107.620;2022-10-16T04:33:27;6.70;;;3.15;;
59828;SDS011;45708;51.848;107.620;2022-10-16T04:38:28;10.18;;;3.25;;
59828;SDS011;45708;51.848;107.620;2022-10-16T04:43:29;4.05;;;1.95;;
59828;SDS011;45708;51.848;107.620;2022-10-16T04:48:30;7.43;;;3.10;;
59828;SDS011;45708;51.848;107.620;2022-10-16T04:53:32;2.90;;;1.85;;
59828;SDS011;45708;51.848;107.620;2022-10-16T04:58:32;7.88;;;3.72;;
59828;SDS011;45708;51.848;107.620;2022-10-16T05:03:33;4.50;;;2.83;;
59828;SDS011;45708;51.848;107.620;2022-10-16T05:08:34;6.00;;;2.75;;
59828;SDS011;45708;51.848;107.620;2022-10-16T05:13:36;4.05;;;2.10;;
59828;SDS011;45708;51.848;107.620;2022-10-16T05:18:37;5.05;;;2.95;;
59828;SDS011;45708;51.848;107.620;2022-10-16T05:23:38;7.18;;;3.20;;
59828;SDS011;45708;51.848;107.620;2022-10-16T05:28:39;5.13;;;2.80;;
59828;SDS011;45708;51.848;107.620;2022-10-16T05:33:39;3.50;;;1.85;;
59828;SDS011;45708;51.848;107.620;2022-10-16T05:38:40;4.85;;;2.47;;
59828;SDS011;45708;51.848;107.620;2022-10-16T05:43:42;3.30;;;2.70;;
59828;SDS011;45708;51.848;107.620;2022-10-16T05:48:43;8.02;;;2.85;;
59828;SDS011;45708;51.848;107.620;2022-10-16T05:53:44;6.63;;;3.25;;
59828;SDS011;45708;51.848;107.620;2022-10-16T05:58:45;2.80;;;2.05;;
59828;SDS011;45708;51.848;107.620;2022-10-16T06:03:46;5.22;;;2.53;;
59828;SDS011;45708;51.848;107.620;2022-10-16T06:08:47;1.80;;;1.25;;
59828;SDS011;45708;51.848;107.620;2022-10-16T06:13:54;2.33;;;1.73;;
59828;SDS011;45708;51.848;107.620;2022-10-16T06:18:56;4.55;;;1.60;;
59828;SDS011;45708;51.848;107.620;2022-10-16T06:23:57;0.80;;;0.60;;
59828;SDS011;45708;51.848;107.620;2022-10-16T06:28:59;11.57;;;4.18;;
59828;SDS011;45708;51.848;107.620;2022-10-16T06:34:00;4.43;;;1.38;;
59828;SDS011;45708;51.848;107.620;2022-10-16T06:39:01;3.28;;;2.20;;
59828;SDS011;45708;51.848;107.620;2022-10-16T06:44:04;3.50;;;1.95;;
59828;SDS011;45708;51.848;107.620;2022-10-16T06:49:06;6.20;;;2.25;;
59828;SDS011;45708;51.848;107.620;2022-10-16T06:54:07;8.35;;;3.20;;
59828;SDS011;45708;51.848;107.620;2022-10-16T06:59:08;4.05;;;2.30;;
59828;SDS011;45708;51.848;107.620;2022-10-16T07:04:08;4.07;;;1.90;;
59828;SDS011;45708;51.848;107.620;2022-10-16T07:09:09;4.00;;;2.67;;
59828;SDS011;45708;51.848;107.620;2022-10-16T07:14:17;3.50;;;2.55;;
59828;SDS011;45708;51.848;107.620;2022-10-16T07:19:19;4.70;;;2.40;;
59828;SDS011;45708;51.848;107.620;2022-10-16T07:24:20;9.73;;;2.80;;
59828;SDS011;45708;51.848;107.620;2022-10-16T07:29:21;3.05;;;1.60;;
59828;SDS011;45708;51.848;107.620;2022-10-16T07:34:22;4.50;;;1.80;;
59828;SDS011;45708;51.848;107.620;2022-10-16T07:39:23;4.43;;;2.30;;
59828;SDS011;45708;51.848;107.620;2022-10-16T07:44:23;9.85;;;3.90;;
59828;SDS011;45708;51.848;107.620;2022-10-16T07:49:24;7.65;;;4.15;;
59828;SDS011;45708;51.848;107.620;2022-10-16T07:54:25;4.10;;;2.03;;
59828;SDS011;45708;51.848;107.620;2022-10-16T07:59:26;2.83;;;1.80;;
59828;SDS011;45708;51.848;107.620;2022-10-16T08:04:27;4.20;;;2.15;;
59828;SDS011;45708;51.848;107.620;2022-10-16T08:09:28;6.47;;;2.03;;
59828;SDS011;45708;51.848;107.620;2022-10-16T08:14:28;4.43;;;3.17;;
59828;SDS011;45708;51.848;107.620;2022-10-16T08:19:30;6.88;;;3.22;;
59828;SDS011;45708;51.848;107.620;2022-10-16T08:24:30;7.47;;;4.90;;
59828;SDS011;45708;51.848;107.620;2022-10-16T08:29:31;9.75;;;4.53;;
59828;SDS011;45708;51.848;107.620;2022-10-16T08:34:32;16.15;;;8.00;;
59828;SDS011;45708;51.848;107.620;2022-10-16T08:39:33;17.25;;;7.45;;
59828;SDS011;45708;51.848;107.620;2022-10-16T08:44:53;21.67;;;7.55;;
59828;SDS011;45708;51.848;107.620;2022-10-16T08:50:10;16.48;;;7.90;;
59828;SDS011;45708;51.848;107.620;2022-10-16T08:55:30;8.48;;;5.50;;
59828;SDS011;45708;51.848;107.620;2022-10-16T09:00:37;19.45;;;9.13;;
59828;SDS011;45708;51.848;107.620;2022-10-16T09:11:16;21.08;;;9.93;;
59828;SDS011;45708;51.848;107.620;2022-10-16T09:16:34;17.67;;;8.40;;
59828;SDS011;45708;51.848;107.620;2022-10-16T09:21:43;16.58;;;7.30;;
59828;SDS011;45708;51.848;107.620;2022-10-16T09:26:46;17.88;;;9.57;;
59828;SDS011;45708;51.848;107.620;2022-10-16T09:31:47;20.92;;;11.02;;
59828;SDS011;45708;51.848;107.620;2022-10-16T09:36:48;27.38;;;14.20;;
59828;SDS011;45708;51.848;107.620;2022-10-16T09:41:50;38.13;;;17.60;;
59828;SDS011;45708;51.848;107.620;2022-10-16T09:47:04;38.13;;;17.20;;
59828;SDS011;45708;51.848;107.620;2022-10-16T09:52:13;66.45;;;30.63;;
59828;SDS011;45708;51.848;107.620;2022-10-16T09:57:15;79.85;;;37.30;;
59828;SDS011;45708;51.848;107.620;2022-10-16T10:02:20;82.95;;;37.45;;
59828;SDS011;45708;51.848;107.620;2022-10-16T10:07:30;55.08;;;23.90;;
59828;SDS011;45708;51.848;107.620;2022-10-16T10:12:33;45.40;;;20.05;;
59828;SDS011;45708;51.848;107.620;2022-10-16T10:17:44;43.50;;;20.65;;
59828;SDS011;45708;51.848;107.620;2022-10-16T10:22:49;47.53;;;24.08;;
59828;SDS011;45708;51.848;107.620;2022-10-16T10:28:00;46.50;;;22.98;;
59828;SDS011;45708;51.848;107.620;2022-10-16T10:33:34;45.08;;;20.75;;
59828;SDS011;45708;51.848;107.620;2022-10-16T10:38:59;40.00;;;17.15;;
59828;SDS011;45708;51.848;107.620;2022-10-16T11:05:52;27.00;;;15.80;;
59828;SDS011;45708;51.848;107.620;2022-10-16T11:11:02;36.85;;;19.35;;
59828;SDS011;45708;51.848;107.620;2022-10-16T11:16:27;74.53;;;31.73;;
59828;SDS011;45708;51.848;107.620;2022-10-16T11:21:35;73.68;;;29.92;;
59828;SDS011;45708;51.848;107.620;2022-10-16T11:26:43;65.57;;;30.75;;
59828;SDS011;45708;51.848;107.620;2022-10-16T11:31:48;75.43;;;44.00;;
59828;SDS011;45708;51.848;107.620;2022-10-16T11:37:05;64.88;;;31.67;;
59828;SDS011;45708;51.848;107.620;2022-10-16T11:52:48;117.13;;;48.28;;
59828;SDS011;45708;51.848;107.620;2022-10-16T11:58:13;64.47;;;31.13;;
59828;SDS011;45708;51.848;107.620;2022-10-16T12:03:56;107.57;;;43.10;;
59828;SDS011;45708;51.848;107.620;2022-10-16T12:09:21;105.78;;;40.45;;
59828;SDS011;45708;51.848;107.620;2022-10-16T12:19:35;103.68;;;39.25;;
59828;SDS011;45708;51.848;107.620;2022-10-16T12:24:37;138.13;;;51.03;;
59828;SDS011;45708;51.848;107.620;2022-10-16T12:29:41;95.90;;;41.47;;
59828;SDS011;45708;51.848;107.620;2022-10-16T12:34:44;90.00;;;40.25;;
59828;SDS011;45708;51.848;107.620;2022-10-16T12:39:45;81.68;;;38.25;;
59828;SDS011;45708;51.848;107.620;2022-10-16T12:44:48;75.25;;;33.88;;
59828;SDS011;45708;51.848;107.620;2022-10-16T12:49:53;72.38;;;33.45;;
59828;SDS011;45708;51.848;107.620;2022-10-16T12:54:58;100.00;;;45.13;;
59828;SDS011;45708;51.848;107.620;2022-10-16T13:10:42;43.92;;;22.63;;
59828;SDS011;45708;51.848;107.620;2022-10-16T13:21:43;70.75;;;32.75;;
59828;SDS011;45708;51.848;107.620;2022-10-16T13:27:15;65.82;;;30.42;;
59828;SDS011;45708;51.848;107.620;2022-10-16T13:32:27;66.68;;;31.27;;
59828;SDS011;45708;51.848;107.620;2022-10-16T13:37:29;88.47;;;35.78;;
59828;SDS011;45708;51.848;107.620;2022-10-16T13:42:30;82.28;;;29.75;;
59828;SDS011;45708;51.848;107.620;2022-10-16T13:47:31;70.05;;;29.58;;
59828;SDS011;45708;51.848;107.620;2022-10-16T13:52:32;78.10;;;33.47;;
59828;SDS011;45708;51.848;107.620;2022-10-16T13:57:33;76.50;;;32.65;;
59828;SDS011;45708;51.848;107.620;2022-10-16T14:02:34;85.60;;;32.28;;
59828;SDS011;45708;51.848;107.620;2022-10-16T14:07:39;90.38;;;35.90;;
59828;SDS011;45708;51.848;107.620;2022-10-16T14:12:40;78.60;;;32.13;;
59828;SDS011;45708;51.848;107.620;2022-10-16T14:17:42;76.15;;;32.15;;
59828;SDS011;45708;51.848;107.620;2022-10-16T14:22:46;77.35;;;33.97;;
59828;SDS011;45708;51.848;107.620;2022-10-16T14:28:00;57.70;;;27.50;;
59828;SDS011;45708;51.848;107.620;2022-10-16T14:33:03;73.55;;;31.83;;
59828;SDS011;45708;51.848;107.620;2022-10-16T14:38:06;76.97;;;32.33;;
59828;SDS011;45708;51.848;107.620;2022-10-16T14:43:37;69.93;;;32.20;;
59828;SDS011;45708;51.848;107.620;2022-10-16T14:48:45;78.80;;;30.80;;
59828;SDS011;45708;51.848;107.620;2022-10-16T14:53:49;84.47;;;36.83;;
59828;SDS011;45708;51.848;107.620;2022-10-16T14:58:51;84.32;;;35.15;;
59828;SDS011;45708;51.848;107.620;2022-10-16T15:03:52;84.18;;;32.67;;
59828;SDS011;45708;51.848;107.620;2022-10-16T15:08:53;72.10;;;29.23;;
59828;SDS011;45708;51.848;107.620;2022-10-16T15:13:54;74.65;;;28.77;;
59828;SDS011;45708;51.848;107.620;2022-10-16T15:18:57;96.03;;;37.10;;
59828;SDS011;45708;51.848;107.620;2022-10-16T15:23:58;129.15;;;48.65;;
59828;SDS011;45708;51.848;107.620;2022-10-16T15:29:00;109.65;;;47.45;;
59828;SDS011;45708;51.848;107.620;2022-10-16T15:34:01;118.78;;;44.28;;
59828;SDS011;45708;51.848;107.620;2022-10-16T15:39:03;112.57;;;45.57;;
59828;SDS011;45708;51.848;107.620;2022-10-16T15:44:04;107.23;;;44.23;;
59828;SDS011;45708;51.848;107.620;2022-10-16T15:49:05;105.20;;;40.27;;
59828;SDS011;45708;51.848;107.620;2022-10-16T15:54:06;80.97;;;33.67;;
59828;SDS011;45708;51.848;107.620;2022-10-16T15:59:08;74.20;;;30.90;;
59828;SDS011;45708;51.848;107.620;2022-10-16T16:04:09;62.67;;;23.73;;
59828;SDS011;45708;51.848;107.620;2022-10-16T16:09:10;53.80;;;22.60;;
59828;SDS011;45708;51.848;107.620;2022-10-16T16:14:13;56.50;;;21.90;;
59828;SDS011;45708;51.848;107.620;2022-10-16T16:19:14;45.87;;;21.97;;
59828;SDS011;45708;51.848;107.620;2022-10-16T16:24:15;55.87;;;25.67;;
59828;SDS011;45708;51.848;107.620;2022-10-16T16:29:16;39.93;;;19.47;;
59828;SDS011;45708;51.848;107.620;2022-10-16T16:34:16;45.57;;;18.40;;
59828;SDS011;45708;51.848;107.620;2022-10-16T16:39:17;61.73;;;20.97;;
59828;SDS011;45708;51.848;107.620;2022-10-16T16:44:18;51.97;;;20.03;;
59828;SDS011;45708;51.848;107.620;2022-10-16T16:49:19;59.13;;;22.30;;
59828;SDS011;45708;51.848;107.620;2022-10-16T16:54:20;51.30;;;20.43;;
59828;SDS011;45708;51.848;107.620;2022-10-16T16:59:21;62.73;;;21.50;;
59828;SDS011;45708;51.848;107.620;2022-10-16T17:04:22;71.17;;;23.37;;
59828;SDS011;45708;51.848;107.620;2022-10-16T17:09:23;80.20;;;26.87;;
59828;SDS011;45708;51.848;107.620;2022-10-16T17:14:23;51.80;;;21.27;;
59828;SDS011;45708;51.848;107.620;2022-10-16T17:19:24;71.73;;;27.87;;
59828;SDS011;45708;51.848;107.620;2022-10-16T17:24:25;71.37;;;26.03;;
59828;SDS011;45708;51.848;107.620;2022-10-16T17:29:26;61.83;;;24.80;;
59828;SDS011;45708;51.848;107.620;2022-10-16T17:34:27;71.77;;;28.50;;
59828;SDS011;45708;51.848;107.620;2022-10-16T17:39:28;77.30;;;30.50;;
59828;SDS011;45708;51.848;107.620;2022-10-16T17:44:29;84.47;;;31.43;;
59828;SDS011;45708;51.848;107.620;2022-10-16T17:49:30;77.37;;;29.83;;
59828;SDS011;45708;51.848;107.620;2022-10-16T17:54:31;71.30;;;27.17;;
59828;SDS011;45708;51.848;107.620;2022-10-16T17:59:31;62.70;;;23.63;;
59828;SDS011;45708;51.848;107.620;2022-10-16T18:04:32;67.77;;;24.07;;
59828;SDS011;45708;51.848;107.620;2022-10-16T18:09:33;64.83;;;24.93;;
59828;SDS011;45708;51.848;107.620;2022-10-16T18:14:34;55.90;;;23.17;;
59828;SDS011;45708;51.848;107.620;2022-10-16T18:19:35;58.47;;;22.50;;
59828;SDS011;45708;51.848;107.620;2022-10-16T18:24:35;47.23;;;20.50;;
59828;SDS011;45708;51.848;107.620;2022-10-16T18:29:36;25.43;;;10.23;;
59828;SDS011;45708;51.848;107.620;2022-10-16T18:34:37;20.40;;;8.53;;
59828;SDS011;45708;51.848;107.620;2022-10-16T18:39:38;22.37;;;8.10;;
59828;SDS011;45708;51.848;107.620;2022-10-16T18:44:39;42.90;;;15.67;;
59828;SDS011;45708;51.848;107.620;2022-10-16T18:49:39;28.60;;;10.40;;
59828;SDS011;45708;51.848;107.620;2022-10-16T18:54:40;23.17;;;9.30;;
59828;SDS011;45708;51.848;107.620;2022-10-16T18:59:41;45.00;;;16.43;;
59828;SDS011;45708;51.848;107.620;2022-10-16T19:04:42;25.87;;;11.90;;
59828;SDS011;45708;51.848;107.620;2022-10-16T19:09:43;16.23;;;7.60;;
59828;SDS011;45708;51.848;107.620;2022-10-16T19:14:46;31.43;;;10.70;;
59828;SDS011;45708;51.848;107.620;2022-10-16T19:19:50;76.43;;;28.07;;
59828;SDS011;45708;51.848;107.620;2022-10-16T19:24:51;78.47;;;29.83;;
59828;SDS011;45708;51.848;107.620;2022-10-16T19:29:54;65.37;;;26.33;;
59828;SDS011;45708;51.848;107.620;2022-10-16T19:34:55;46.20;;;21.50;;
59828;SDS011;45708;51.848;107.620;2022-10-16T19:39:56;32.60;;;13.67;;
59828;SDS011;45708;51.848;107.620;2022-10-16T19:44:57;52.53;;;20.70;;
59828;SDS011;45708;51.848;107.620;2022-10-16T19:49:57;42.37;;;16.93;;
59828;SDS011;45708;51.848;107.620;2022-10-16T19:54:58;26.23;;;12.37;;
59828;SDS011;45708;51.848;107.620;2022-10-16T19:59:59;17.83;;;8.70;;
59828;SDS011;45708;51.848;107.620;2022-10-16T20:05:00;34.90;;;14.53;;
59828;SDS011;45708;51.848;107.620;2022-10-16T20:10:01;61.60;;;22.03;;
59828;SDS011;45708;51.848;107.620;2022-10-16T20:15:02;63.93;;;24.57;;
59828;SDS011;45708;51.848;107.620;2022-10-16T20:20:03;73.70;;;28.13;;
59828;SDS011;45708;51.848;107.620;2022-10-16T20:25:04;62.33;;;22.23;;
59828;SDS011;45708;51.848;107.620;2022-10-16T20:30:05;52.70;;;20.57;;
59828;SDS011;45708;51.848;107.620;2022-10-16T20:35:07;59.43;;;22.73;;
59828;SDS011;45708;51.848;107.620;2022-10-16T20:40:08;59.60;;;22.47;;
59828;SDS011;45708;51.848;107.620;2022-10-16T20:45:09;51.37;;;24.23;;
59828;SDS011;45708;51.848;107.620;2022-10-16T20:50:10;47.07;;;21.43;;
59828;SDS011;45708;51.848;107.620;2022-10-16T20:55:11;68.00;;;25.30;;
59828;SDS011;45708;51.848;107.620;2022-10-16T21:00:12;62.37;;;27.07;;
59828;SDS011;45708;51.848;107.620;2022-10-16T21:05:13;44.53;;;21.30;;
59828;SDS011;45708;51.848;107.620;2022-10-16T21:10:14;54.67;;;23.63;;
59828;SDS011;45708;51.848;107.620;2022-10-16T21:15:15;50.30;;;20.40;;
59828;SDS011;45708;51.848;107.620;2022-10-16T21:20:16;45.83;;;18.73;;
59828;SDS011;45708;51.848;107.620;2022-10-16T21:25:17;43.77;;;17.93;;
59828;SDS011;45708;51.848;107.620;2022-10-16T21:30:18;42.27;;;20.33;;
59828;SDS011;45708;51.848;107.620;2022-10-16T21:35:18;37.60;;;19.90;;
59828;SDS011;45708;51.848;107.620;2022-10-16T21:40:19;54.33;;;23.90;;
59828;SDS011;45708;51.848;107.620;2022-10-16T21:45:20;60.17;;;22.57;;
59828;SDS011;45708;51.848;107.620;2022-10-16T21:50:21;47.33;;;18.53;;
59828;SDS011;45708;51.848;107.620;2022-10-16T21:55:22;45.33;;;18.73;;
59828;SDS011;45708;51.848;107.620;2022-10-16T22:00:22;39.93;;;15.10;;
59828;SDS011;45708;51.848;107.620;2022-10-16T22:05:23;42.60;;;15.27;;
59828;SDS011;45708;51.848;107.620;2022-10-16T22:10:24;19.90;;;9.73;;
59828;SDS011;45708;51.848;107.620;2022-10-16T22:15:25;14.77;;;7.60;;
59828;SDS011;45708;51.848;107.620;2022-10-16T22:20:26;16.47;;;6.87;;
59828;SDS011;45708;51.848;107.620;2022-10-16T22:25:27;15.80;;;8.37;;
59828;SDS011;45708;51.848;107.620;2022-10-16T22:30:27;21.97;;;9.27;;
59828;SDS011;45708;51.848;107.620;2022-10-16T22:35:28;19.03;;;9.03;;
59828;SDS011;45708;51.848;107.620;2022-10-16T22:40:29;25.03;;;13.67;;
59828;SDS011;45708;51.848;107.620;2022-10-16T22:45:33;37.83;;;14.67;;
59828;SDS011;45708;51.848;107.620;2022-10-16T22:50:35;41.77;;;17.47;;
59828;SDS011;45708;51.848;107.620;2022-10-16T22:55:36;32.40;;;14.57;;
59828;SDS011;45708;51.848;107.620;2022-10-16T23:00:36;37.73;;;14.73;;
59828;SDS011;45708;51.848;107.620;2022-10-16T23:05:41;41.67;;;20.30;;
59828;SDS011;45708;51.848;107.620;2022-10-16T23:10:43;51.53;;;22.07;;
59828;SDS011;45708;51.848;107.620;2022-10-16T23:15:45;63.30;;;24.00;;
59828;SDS011;45708;51.848;107.620;2022-10-16T23:20:49;49.53;;;19.70;;
59828;SDS011;45708;51.848;107.620;2022-10-16T23:25:50;51.27;;;19.47;;
59828;SDS011;45708;51.848;107.620;2022-10-16T23:30:50;38.30;;;16.80;;
59828;SDS011;45708;51.848;107.620;2022-10-16T23:35:51;47.33;;;23.80;;
59828;SDS011;45708;51.848;107.620;2022-10-16T23:40:52;32.93;;;14.57;;
59828;SDS011;45708;51.848;107.620;2022-10-16T23:45:53;39.60;;;18.37;;
59828;SDS011;45708;51.848;107.620;2022-10-16T23:50:54;55.63;;;20.80;;
59828;SDS011;45708;51.848;107.620;2022-10-16T23:55:55;48.13;;;20.67;;
